createdAt,value
2023-01-13T00:02:25.058Z,1.68
2023-01-13T00:05:28.500Z,1.66
2023-01-13T00:08:31.376Z,1.67
2023-01-13T00:11:34.676Z,1.66
2023-01-13T00:14:37.419Z,1.60
2023-01-13T00:17:40.306Z,1.61
2023-01-13T00:20:44.560Z,1.59
2023-01-13T00:23:48.121Z,1.56
2023-01-13T00:26:50.690Z,1.56
2023-01-13T00:29:53.779Z,1.55
2023-01-13T00:32:56.396Z,1.54
2023-01-13T00:36:00.236Z,1.52
2023-01-13T00:39:03.354Z,1.51
2023-01-13T00:42:24.980Z,1.53
2023-01-13T00:45:27.749Z,1.43
2023-01-13T00:48:31.222Z,1.44
2023-01-13T00:51:34.078Z,1.42
2023-01-13T00:54:36.971Z,1.40
2023-01-13T00:57:40.098Z,1.34
2023-01-13T01:00:43.186Z,1.38
2023-01-13T01:03:52.622Z,1.39
2023-01-13T01:06:55.761Z,1.39
2023-01-13T01:09:58.242Z,1.33
2023-01-13T01:13:01.249Z,1.31
2023-01-13T01:16:16.760Z,1.34
2023-01-13T01:19:20.641Z,1.09
2023-01-13T01:22:23.395Z,1.33
2023-01-13T01:25:26.193Z,1.35
2023-01-13T01:28:29.806Z,1.33
2023-01-13T01:31:34.981Z,1.32
2023-01-13T01:34:39.214Z,1.31
2023-01-13T01:37:42.693Z,1.34
2023-01-13T01:40:45.395Z,1.30
2023-01-13T01:43:59.760Z,1.38
2023-01-13T01:47:03.033Z,1.42
2023-01-13T01:50:06.902Z,1.47
2023-01-13T01:53:14.501Z,1.50
2023-01-13T01:56:18.047Z,1.51
2023-01-13T01:59:22.313Z,1.53
2023-01-13T02:02:25.420Z,1.56
2023-01-13T02:05:28.411Z,1.56
2023-01-13T02:08:31.690Z,1.55
2023-01-13T02:11:54.965Z,1.57
2023-01-13T02:15:01.550Z,1.55
2023-01-13T02:18:30.860Z,1.58
2023-01-13T02:21:42.668Z,1.57
2023-01-13T02:25:15.217Z,1.53
2023-01-13T02:29:06.484Z,1.55
2023-01-13T02:32:23.118Z,1.57
2023-01-13T02:35:28.934Z,1.56
2023-01-13T02:38:40.790Z,1.57
2023-01-13T02:42:33.467Z,1.53
2023-01-13T02:45:50.538Z,1.60
2023-01-13T02:48:54.863Z,1.64
2023-01-13T02:52:03.035Z,1.58
2023-01-13T02:55:09.288Z,1.67
2023-01-13T02:58:15.925Z,1.68
2023-01-13T03:01:19.669Z,1.60
2023-01-13T03:04:50.127Z,1.69
2023-01-13T03:08:12.348Z,1.70
2023-01-13T03:11:17.749Z,1.68
2023-01-13T03:14:36.502Z,1.69
2023-01-13T03:17:43.055Z,1.68
2023-01-13T03:21:11.236Z,1.66
2023-01-13T03:24:18.090Z,1.64
2023-01-13T03:27:37.855Z,1.64
2023-01-13T03:30:50.708Z,1.60
2023-01-13T03:34:07.996Z,1.62
2023-01-13T03:37:11.542Z,1.62
2023-01-13T03:40:20.976Z,1.62
2023-01-13T03:43:51.007Z,1.64
2023-01-13T03:47:02.071Z,1.64
2023-01-13T03:50:14.709Z,1.65
2023-01-13T03:53:31.570Z,1.63
2023-01-13T03:56:35.153Z,1.64
2023-01-13T03:59:42.193Z,1.60
2023-01-13T04:03:14.756Z,1.59
2023-01-13T04:06:20.774Z,1.57
2023-01-13T04:09:29.840Z,1.57
2023-01-13T04:12:55.413Z,1.55
2023-01-13T04:16:00.193Z,1.55
2023-01-13T04:19:10.971Z,1.54
2023-01-13T04:22:13.560Z,1.58
2023-01-13T04:25:16.624Z,1.58
2023-01-13T04:28:19.864Z,1.55
2023-01-13T04:31:23.344Z,1.57
2023-01-13T04:34:28.271Z,1.59
2023-01-13T04:37:31.779Z,1.60
2023-01-13T04:40:34.423Z,1.61
2023-01-13T04:43:37.911Z,1.56
2023-01-13T04:46:40.554Z,1.51
2023-01-13T04:49:43.771Z,1.52
2023-01-13T04:52:47.588Z,1.55
2023-01-13T04:55:50.646Z,1.53
2023-01-13T04:58:53.364Z,1.53
2023-01-13T05:01:56.293Z,1.28
2023-01-13T05:04:59.315Z,1.18
2023-01-13T05:08:02.203Z,1.24
2023-01-13T05:11:25.178Z,1.12
2023-01-13T05:14:47.069Z,0.90
2023-01-13T05:17:50.417Z,0.87
2023-01-13T05:20:53.631Z,0.82
2023-01-13T05:24:14.879Z,0.85
2023-01-13T05:27:18.233Z,0.55
2023-01-13T05:30:22.739Z,0.41
2023-01-13T05:33:25.570Z,0.55
2023-01-13T05:36:28.754Z,0.65
2023-01-13T05:39:51.818Z,0.70
2023-01-13T05:43:20.954Z,0.57
2023-01-13T05:46:24.177Z,0.46
2023-01-13T05:49:27.195Z,0.24
2023-01-13T05:52:30.303Z,0.09
2023-01-13T05:55:33.085Z,0.01
2023-01-13T05:58:37.077Z,0.14
2023-01-13T06:01:39.988Z,0.02
2023-01-13T06:04:43.090Z,-0.11
2023-01-13T06:07:45.918Z,-0.23
2023-01-13T06:10:50.166Z,-0.31
2023-01-13T06:13:53.010Z,-0.40
2023-01-13T06:16:55.993Z,-0.44
2023-01-13T06:20:00.579Z,-0.47
2023-01-13T06:23:04.079Z,1.02
2023-01-13T06:26:14.842Z,0.28
2023-01-13T06:29:18.054Z,0.06
2023-01-13T06:32:32.921Z,-0.16
2023-01-13T06:35:37.441Z,-0.32
2023-01-13T06:38:43.067Z,-0.33
2023-01-13T06:42:07.733Z,-0.31
2023-01-13T06:45:11.068Z,-0.26
2023-01-13T06:48:15.465Z,-0.38
2023-01-13T06:51:18.446Z,-0.38
2023-01-13T06:54:22.109Z,-0.36
2023-01-13T06:57:25.115Z,-0.36
2023-01-13T07:00:29.183Z,-0.36
2023-01-13T07:03:31.936Z,-0.32
2023-01-13T07:06:35.425Z,-0.24
2023-01-13T07:09:38.394Z,-0.18
2023-01-13T07:13:00.502Z,-0.13
2023-01-13T07:16:05.837Z,-0.04
2023-01-13T07:19:09.388Z,0.02
2023-01-13T07:22:13.775Z,0.04
2023-01-13T07:25:16.918Z,0.05
2023-01-13T07:28:19.629Z,0.04
2023-01-13T07:31:22.695Z,0.04
2023-01-13T07:34:25.690Z,-0.07
2023-01-13T07:37:29.101Z,0.01
2023-01-13T07:40:32.213Z,-0.01
2023-01-13T07:43:35.372Z,-0.06
2023-01-13T07:46:39.523Z,-0.09
2023-01-13T07:49:42.661Z,-0.09
2023-01-13T07:52:45.543Z,-0.11
2023-01-13T07:55:49.770Z,-0.08
2023-01-13T07:58:53.422Z,-0.07
2023-01-13T08:01:57.243Z,-0.11
2023-01-13T08:05:00.352Z,-0.10
2023-01-13T08:08:03.531Z,-0.06
2023-01-13T08:11:08.039Z,-0.04
2023-01-13T08:14:10.965Z,-0.01
2023-01-13T08:17:14.082Z,0.00
2023-01-13T08:20:17.179Z,0.02
2023-01-13T08:23:24.456Z,0.06
2023-01-13T08:26:27.790Z,0.25
2023-01-13T08:29:30.832Z,0.42
2023-01-13T08:32:33.592Z,0.41
2023-01-13T08:35:38.267Z,0.56
2023-01-13T08:38:41.678Z,0.57
2023-01-13T08:41:56.753Z,0.61
2023-01-13T08:44:59.858Z,0.54
2023-01-13T08:48:03.860Z,0.52
2023-01-13T08:51:09.084Z,0.56
2023-01-13T08:54:12.857Z,0.57
2023-01-13T08:57:15.625Z,0.64
2023-01-13T09:00:18.989Z,0.72
2023-01-13T09:03:21.916Z,0.76
2023-01-13T09:06:24.917Z,0.83
2023-01-13T09:09:28.031Z,0.91
2023-01-13T09:12:50.276Z,0.94
2023-01-13T09:15:56.694Z,0.93
2023-01-13T09:18:59.799Z,0.96
2023-01-13T09:22:02.919Z,0.98
2023-01-13T09:25:06.529Z,1.06
2023-01-13T09:28:09.306Z,0.99
2023-01-13T09:31:12.863Z,1.12
2023-01-13T09:34:36.426Z,1.18
2023-01-13T09:37:40.847Z,1.23
2023-01-13T09:40:48.044Z,1.24
2023-01-13T09:43:56.775Z,1.30
2023-01-13T09:47:04.314Z,1.34
2023-01-13T09:50:10.557Z,1.39
2023-01-13T09:53:19.994Z,1.48
2023-01-13T09:56:23.717Z,1.47
2023-01-13T09:59:36.478Z,1.54
2023-01-13T10:02:58.573Z,1.61
2023-01-13T10:06:21.807Z,1.65
2023-01-13T10:09:32.829Z,1.74
2023-01-13T10:12:54.510Z,1.77
2023-01-13T10:16:08.622Z,1.77
2023-01-13T10:19:18.928Z,1.81
2023-01-13T10:22:36.548Z,1.86
2023-01-13T10:25:55.164Z,1.99
2023-01-13T10:28:57.978Z,2.04
2023-01-13T10:32:01.122Z,2.07
2023-01-13T10:35:03.932Z,2.12
2023-01-13T10:38:25.039Z,2.14
2023-01-13T10:41:28.049Z,2.11
2023-01-13T10:44:31.568Z,2.07
2023-01-13T10:47:36.578Z,2.02
2023-01-13T10:50:40.890Z,2.08
2023-01-13T10:54:13.253Z,2.06
2023-01-13T10:57:20.916Z,2.11
2023-01-13T11:00:27.724Z,2.22
2023-01-13T11:03:42.968Z,2.18
2023-01-13T11:06:47.363Z,2.43
2023-01-13T11:10:38.812Z,2.63
2023-01-13T11:14:02.423Z,2.77
2023-01-13T11:17:29.975Z,2.74
2023-01-13T11:20:33.822Z,2.80
2023-01-13T11:23:42.834Z,2.89
2023-01-13T11:26:51.344Z,3.12
2023-01-13T11:30:30.416Z,3.16
2023-01-13T11:33:43.219Z,3.23
2023-01-13T11:36:52.074Z,3.28
2023-01-13T11:40:06.094Z,3.20
2023-01-13T11:43:19.218Z,3.06
2023-01-13T11:46:28.671Z,3.00
2023-01-13T11:49:33.226Z,2.98
2023-01-13T11:52:53.364Z,2.79
2023-01-13T11:56:50.916Z,2.89
2023-01-13T11:59:59.065Z,2.78
2023-01-13T12:03:17.514Z,2.77
2023-01-13T12:06:39.259Z,2.71
2023-01-13T12:09:48.968Z,2.67
2023-01-13T12:13:25.616Z,2.66
2023-01-13T12:16:32.498Z,2.62
2023-01-13T12:19:36.137Z,2.66
2023-01-13T12:22:39.947Z,2.64
2023-01-13T12:25:45.907Z,2.61
2023-01-13T12:29:13.838Z,2.58
2023-01-13T12:32:24.523Z,2.55
2023-01-13T12:35:42.418Z,2.45
2023-01-13T12:38:50.528Z,2.90
2023-01-13T12:42:12.826Z,2.76
2023-01-13T12:45:18.403Z,2.74
2023-01-13T12:48:46.462Z,2.62
2023-01-13T12:51:52.432Z,2.58
2023-01-13T12:54:55.791Z,2.59
2023-01-13T12:58:04.961Z,2.59
2023-01-13T13:01:15.618Z,2.60
2023-01-13T13:04:43.730Z,2.61
2023-01-13T13:07:49.926Z,2.64
2023-01-13T13:11:07.163Z,2.68
2023-01-13T13:14:13.853Z,2.65
2023-01-13T13:17:19.922Z,2.57
2023-01-13T13:20:54.445Z,2.63
2023-01-13T13:23:57.488Z,2.64
2023-01-13T13:27:19.943Z,2.63
2023-01-13T13:30:22.924Z,2.63
2023-01-13T13:33:35.473Z,2.63
2023-01-13T13:36:41.799Z,2.61
2023-01-13T13:40:04.069Z,2.60
2023-01-13T13:43:31.105Z,2.62
2023-01-13T13:46:48.060Z,2.52
2023-01-13T13:49:54.556Z,2.52
2023-01-13T13:53:05.927Z,2.51
2023-01-13T13:56:19.025Z,2.51
2023-01-13T13:59:24.858Z,2.47
2023-01-13T14:02:35.181Z,2.44
2023-01-13T14:05:38.236Z,2.31
2023-01-13T14:08:46.698Z,2.38
2023-01-13T14:12:00.167Z,2.32
2023-01-13T14:15:03.255Z,2.36
2023-01-13T14:18:13.943Z,2.31
2023-01-13T14:21:26.824Z,2.29
2023-01-13T14:24:30.904Z,2.30
2023-01-13T14:27:35.327Z,2.26
2023-01-13T14:30:40.267Z,2.30
2023-01-13T14:33:52.018Z,2.35
2023-01-13T14:36:55.018Z,2.34
2023-01-13T14:39:57.987Z,2.32
2023-01-13T14:43:01.931Z,2.28
2023-01-13T14:46:04.996Z,2.31
2023-01-13T14:49:39.713Z,2.27
2023-01-13T14:52:51.059Z,2.26
2023-01-13T14:55:54.237Z,2.25
2023-01-13T14:58:56.867Z,2.10
2023-01-13T15:02:01.710Z,2.18
2023-01-13T15:05:19.795Z,2.19
2023-01-13T15:08:33.979Z,2.20
2023-01-13T15:11:41.010Z,2.18
2023-01-13T15:14:44.301Z,2.18
2023-01-13T15:17:47.395Z,2.12
2023-01-13T15:20:53.834Z,2.17
2023-01-13T15:23:56.547Z,2.18
2023-01-13T15:26:59.476Z,2.20
2023-01-13T15:30:20.116Z,2.22
2023-01-13T15:33:23.195Z,2.21
2023-01-13T15:36:33.775Z,2.22
2023-01-13T15:39:37.031Z,2.52
2023-01-13T15:42:58.767Z,2.29
2023-01-13T15:46:21.838Z,2.30
2023-01-13T15:49:42.782Z,2.23
2023-01-13T15:52:45.675Z,2.25
2023-01-13T15:55:51.441Z,2.21
2023-01-13T15:58:55.206Z,2.16
2023-01-13T16:01:58.150Z,2.12
2023-01-13T16:05:01.325Z,2.12
2023-01-13T16:08:04.877Z,2.12
2023-01-13T16:11:09.517Z,2.06
2023-01-13T16:14:12.220Z,1.98
2023-01-13T16:17:20.066Z,1.92
2023-01-13T16:20:24.994Z,2.06
2023-01-13T16:23:28.252Z,2.05
2023-01-13T16:26:32.785Z,2.05
2023-01-13T16:29:35.873Z,2.12
2023-01-13T16:32:38.569Z,2.13
2023-01-13T16:36:09.429Z,2.14
2023-01-13T16:39:06.140Z,2.18
2023-01-13T16:42:09.287Z,2.18
2023-01-13T16:45:12.609Z,2.23
2023-01-13T16:48:20.183Z,2.25
2023-01-13T16:51:23.860Z,2.28
2023-01-13T16:54:26.786Z,2.28
2023-01-13T16:57:29.741Z,3.65
2023-01-13T17:00:33.064Z,3.21
2023-01-13T17:03:36.019Z,2.93
2023-01-13T17:07:02.066Z,2.76
2023-01-13T17:10:05.504Z,2.65
2023-01-13T17:13:16.471Z,2.60
2023-01-13T17:16:22.203Z,2.55
2023-01-13T17:19:25.892Z,2.52
2023-01-13T17:22:30.825Z,2.48
2023-01-13T17:25:34.230Z,2.48
2023-01-13T17:28:36.981Z,2.46
2023-01-13T17:31:40.141Z,2.47
2023-01-13T17:34:43.846Z,2.48
2023-01-13T17:37:47.067Z,2.48
2023-01-13T17:40:50.682Z,2.46
2023-01-13T17:43:54.259Z,2.43
2023-01-13T17:46:57.021Z,2.42
2023-01-13T17:50:04.261Z,2.42
2023-01-13T17:53:07.865Z,2.43
2023-01-13T17:56:14.208Z,1.96
2023-01-13T17:59:21.043Z,2.21
2023-01-13T18:02:24.873Z,2.42
2023-01-13T18:05:28.086Z,2.42
2023-01-13T18:08:30.870Z,2.44
2023-01-13T18:11:34.212Z,2.45
2023-01-13T18:14:37.053Z,2.21
2023-01-13T18:17:40.162Z,1.62
2023-01-13T18:21:03.644Z,2.44
2023-01-13T18:24:30.598Z,2.44
2023-01-13T18:27:35.658Z,2.43
2023-01-13T18:30:40.619Z,2.41
2023-01-13T18:33:43.631Z,2.40
2023-01-13T18:36:46.838Z,1.80
2023-01-13T18:39:49.742Z,2.07
2023-01-13T18:42:55.138Z,2.40
2023-01-13T18:45:57.991Z,2.38
2023-01-13T18:49:01.082Z,2.39
2023-01-13T18:52:04.385Z,1.84
2023-01-13T18:55:07.899Z,2.13
2023-01-13T18:58:10.861Z,2.36
2023-01-13T19:01:16.919Z,2.08
2023-01-13T19:04:20.095Z,2.34
2023-01-13T19:07:26.945Z,2.33
2023-01-13T19:10:32.641Z,2.37
2023-01-13T19:13:36.502Z,2.38
2023-01-13T19:16:39.359Z,2.22
2023-01-13T19:19:44.882Z,2.36
2023-01-13T19:22:54.041Z,2.36
2023-01-13T19:26:01.517Z,2.23
2023-01-13T19:29:04.353Z,2.37
2023-01-13T19:32:08.097Z,2.37
2023-01-13T19:35:16.032Z,1.94
2023-01-13T19:38:19.741Z,1.74
2023-01-13T19:41:45.581Z,2.42
2023-01-13T19:45:07.531Z,1.88
2023-01-13T19:48:11.089Z,2.32
2023-01-13T19:51:14.787Z,2.45
2023-01-13T19:54:17.674Z,2.41
2023-01-13T19:57:20.896Z,1.64
2023-01-13T20:00:24.201Z,2.46
2023-01-13T20:03:31.192Z,2.27
2023-01-13T20:06:34.284Z,2.38
2023-01-13T20:09:37.685Z,2.46
2023-01-13T20:12:41.735Z,2.49
2023-01-13T20:15:45.347Z,2.51
2023-01-13T20:18:51.766Z,2.54
2023-01-13T20:21:55.087Z,2.53
2023-01-13T20:24:58.553Z,2.56
2023-01-13T20:28:02.292Z,2.57
2023-01-13T20:31:09.763Z,2.57
2023-01-13T20:34:14.646Z,2.56
2023-01-13T20:37:17.583Z,2.40
2023-01-13T20:40:20.928Z,2.52
2023-01-13T20:43:23.988Z,2.52
2023-01-13T20:46:27.761Z,2.41
2023-01-13T20:49:30.997Z,2.36
2023-01-13T20:52:34.174Z,2.46
2023-01-13T20:55:39.918Z,2.43
2023-01-13T20:58:44.225Z,2.38
2023-01-13T21:01:47.249Z,2.40
2023-01-13T21:04:50.511Z,2.36
2023-01-13T21:07:53.321Z,2.21
2023-01-13T21:11:05.337Z,2.45
2023-01-13T21:14:42.356Z,2.43
2023-01-13T21:18:05.012Z,2.55
2023-01-13T21:21:14.193Z,2.59
2023-01-13T21:24:17.512Z,2.56
2023-01-13T21:27:20.643Z,2.66
2023-01-13T21:30:24.826Z,2.69
2023-01-13T21:33:27.743Z,2.57
2023-01-13T21:36:31.010Z,2.62
2023-01-13T21:39:33.711Z,2.59
2023-01-13T21:42:55.472Z,2.57
2023-01-13T21:46:16.788Z,2.53
2023-01-13T21:49:19.907Z,2.54
2023-01-13T21:52:25.622Z,2.57
2023-01-13T21:55:29.832Z,2.56
2023-01-13T21:58:32.677Z,2.56
2023-01-13T22:02:00.210Z,1.81
2023-01-13T22:05:04.068Z,2.45
2023-01-13T22:08:08.112Z,2.59
2023-01-13T22:11:12.857Z,2.53
2023-01-13T22:14:16.221Z,2.61
2023-01-13T22:17:20.918Z,2.62
2023-01-13T22:20:24.119Z,2.64
2023-01-13T22:23:29.296Z,2.58
2023-01-13T22:26:32.126Z,2.67
2023-01-13T22:29:37.616Z,2.63
2023-01-13T22:32:40.656Z,2.64
2023-01-13T22:35:44.116Z,2.59
2023-01-13T22:38:47.176Z,2.66
2023-01-13T22:41:53.472Z,2.65
2023-01-13T22:44:56.489Z,2.68
2023-01-13T22:47:59.660Z,2.69
2023-01-13T22:51:10.973Z,2.71
2023-01-13T22:54:14.529Z,2.71
2023-01-13T22:57:21.883Z,2.72
2023-01-13T23:00:27.092Z,2.73
2023-01-13T23:03:29.970Z,2.75
2023-01-13T23:06:33.961Z,2.76
2023-01-13T23:09:36.667Z,2.78
2023-01-13T23:12:39.887Z,2.78
2023-01-13T23:15:42.831Z,2.79
2023-01-13T23:18:48.125Z,2.70
2023-01-13T23:21:50.905Z,2.78
2023-01-13T23:24:54.092Z,2.76
2023-01-13T23:27:56.816Z,2.73
2023-01-13T23:31:00.386Z,2.62
2023-01-13T23:34:03.315Z,2.70
2023-01-13T23:37:06.621Z,1.82
2023-01-13T23:40:10.339Z,2.70
2023-01-13T23:43:15.007Z,2.67
2023-01-13T23:46:17.783Z,2.44
2023-01-13T23:49:20.952Z,2.35
2023-01-13T23:52:24.078Z,2.58
2023-01-13T23:55:27.574Z,2.56
2023-01-13T23:58:30.855Z,2.11
